createdAt,value
2023-03-29T00:00:34.378Z,2.00
2023-03-29T00:03:16.529Z,1.80
2023-03-29T00:05:44.911Z,1.60
2023-03-29T00:08:14.772Z,2.00
2023-03-29T00:10:43.581Z,1.70
2023-03-29T00:13:11.656Z,1.60
2023-03-29T00:15:39.626Z,1.70
2023-03-29T00:18:07.733Z,1.30
2023-03-29T00:20:35.985Z,2.10
2023-03-29T00:23:03.947Z,1.80
2023-03-29T00:25:34.169Z,1.70
2023-03-29T00:28:02.304Z,2.20
2023-03-29T00:30:30.361Z,1.70
2023-03-29T00:32:58.498Z,2.00
2023-03-29T00:35:27.338Z,1.90
2023-03-29T00:37:55.445Z,1.00
2023-03-29T00:40:23.612Z,1.60
2023-03-29T00:42:51.896Z,2.30
2023-03-29T00:45:22.449Z,1.90
2023-03-29T00:47:58.033Z,1.80
2023-03-29T00:50:44.062Z,1.80
2023-03-29T00:53:31.967Z,1.90
2023-03-29T00:56:03.107Z,1.80
2023-03-29T00:58:38.565Z,2.50
2023-03-29T01:01:08.993Z,2.10
2023-03-29T01:03:46.572Z,2.30
2023-03-29T01:06:16.318Z,2.90
2023-03-29T01:08:47.952Z,2.50
2023-03-29T01:11:22.356Z,3.50
2023-03-29T01:13:52.013Z,3.10
2023-03-29T01:16:20.190Z,3.80
2023-03-29T01:18:48.483Z,3.40
2023-03-29T01:21:36.491Z,2.30
2023-03-29T01:24:13.724Z,4.20
2023-03-29T01:26:51.367Z,3.30
2023-03-29T01:29:41.672Z,3.90
2023-03-29T01:32:13.315Z,3.20
2023-03-29T01:35:10.596Z,4.20
2023-03-29T01:37:58.903Z,3.20
2023-03-29T01:40:28.322Z,4.40
2023-03-29T01:43:02.385Z,4.00
2023-03-29T01:45:37.074Z,2.80
2023-03-29T01:48:11.630Z,2.00
2023-03-29T01:51:05.431Z,3.90
2023-03-29T01:53:50.745Z,3.30
2023-03-29T01:56:21.965Z,3.60
2023-03-29T01:59:01.300Z,3.80
2023-03-29T02:01:31.555Z,4.10
2023-03-29T02:04:02.898Z,3.70
2023-03-29T02:06:33.671Z,3.10
2023-03-29T02:09:01.896Z,2.90
2023-03-29T02:11:30.401Z,4.00
2023-03-29T02:13:58.617Z,4.30
2023-03-29T02:16:26.809Z,3.30
2023-03-29T02:18:56.518Z,4.40
2023-03-29T02:21:35.967Z,3.90
2023-03-29T02:24:06.536Z,2.90
2023-03-29T02:26:34.658Z,3.50
2023-03-29T02:29:02.598Z,2.20
2023-03-29T02:31:41.333Z,3.90
2023-03-29T02:34:31.616Z,3.50
2023-03-29T02:37:01.967Z,3.40
2023-03-29T02:39:32.351Z,4.30
2023-03-29T02:42:00.572Z,4.00
2023-03-29T02:44:30.710Z,3.60
2023-03-29T02:47:29.688Z,3.50
2023-03-29T02:49:59.253Z,3.30
2023-03-29T02:52:33.653Z,3.50
2023-03-29T02:55:03.307Z,3.80
2023-03-29T02:57:32.609Z,3.80
2023-03-29T03:00:01.250Z,3.50
2023-03-29T03:02:30.347Z,3.60
2023-03-29T03:04:59.341Z,3.80
2023-03-29T03:07:28.888Z,3.40
2023-03-29T03:09:58.021Z,3.50
2023-03-29T03:12:26.567Z,2.80
2023-03-29T03:14:54.762Z,3.70
2023-03-29T03:17:23.357Z,4.00
2023-03-29T03:19:51.528Z,3.90
2023-03-29T03:22:19.530Z,3.40
2023-03-29T03:24:47.589Z,3.50
2023-03-29T03:27:16.767Z,3.50
2023-03-29T03:29:44.887Z,3.50
2023-03-29T03:32:18.680Z,3.60
2023-03-29T03:35:02.281Z,3.70
2023-03-29T03:37:30.468Z,4.10
2023-03-29T03:39:58.562Z,4.00
2023-03-29T03:42:29.957Z,3.00
2023-03-29T03:44:59.120Z,2.30
2023-03-29T03:47:31.932Z,3.10
2023-03-29T03:50:13.982Z,3.30
2023-03-29T03:52:41.993Z,3.50
2023-03-29T03:55:12.293Z,4.10
2023-03-29T03:57:48.617Z,3.90
2023-03-29T04:00:23.551Z,4.00
2023-03-29T04:03:30.322Z,4.30
2023-03-29T04:06:01.925Z,3.40
2023-03-29T04:08:36.195Z,3.60
2023-03-29T04:11:39.408Z,3.50
2023-03-29T04:14:07.919Z,4.60
2023-03-29T04:17:05.307Z,4.00
2023-03-29T04:19:51.553Z,5.40
2023-03-29T04:22:20.696Z,4.30
2023-03-29T04:24:50.263Z,4.20
2023-03-29T04:27:39.688Z,4.20
2023-03-29T04:30:16.224Z,4.50
2023-03-29T04:33:05.381Z,3.50
2023-03-29T04:35:38.217Z,4.40
2023-03-29T04:38:12.259Z,5.00
2023-03-29T04:40:41.089Z,4.20
2023-03-29T04:43:14.668Z,4.90
2023-03-29T04:49:00.805Z,5.30
2023-03-29T04:51:38.139Z,5.40
2023-03-29T04:54:06.832Z,4.90
2023-03-29T04:56:58.844Z,5.10
2023-03-29T04:59:45.366Z,6.00
2023-03-29T05:02:43.034Z,6.70
2023-03-29T05:05:12.854Z,6.20
2023-03-29T05:07:41.909Z,6.00
2023-03-29T05:10:15.238Z,5.70
2023-03-29T05:12:44.636Z,6.30
2023-03-29T05:15:13.700Z,5.70
2023-03-29T05:17:42.769Z,6.20
2023-03-29T05:20:13.295Z,6.70
2023-03-29T05:22:45.647Z,6.50
2023-03-29T05:25:20.656Z,6.40
2023-03-29T05:27:48.784Z,7.20
2023-03-29T05:30:18.167Z,6.60
2023-03-29T05:32:54.187Z,6.60
2023-03-29T05:35:29.499Z,6.50
2023-03-29T05:37:58.361Z,6.30
2023-03-29T05:40:26.882Z,6.70
2023-03-29T05:43:16.537Z,7.60
2023-03-29T05:45:44.891Z,7.40
2023-03-29T05:48:13.591Z,7.70
2023-03-29T05:50:49.360Z,7.20
2023-03-29T05:53:20.857Z,7.00
2023-03-29T05:55:49.806Z,7.10
2023-03-29T05:58:19.255Z,7.90
2023-03-29T06:00:49.747Z,7.50
2023-03-29T06:03:29.989Z,6.90
2023-03-29T06:06:02.522Z,6.50
2023-03-29T06:08:31.759Z,6.20
2023-03-29T06:11:12.202Z,5.20
2023-03-29T06:14:02.785Z,5.60
2023-03-29T06:16:32.920Z,5.80
2023-03-29T06:19:01.171Z,6.70
2023-03-29T06:21:30.479Z,5.30
2023-03-29T06:23:59.778Z,6.40
2023-03-29T06:26:29.789Z,5.90
2023-03-29T06:28:58.404Z,6.10
2023-03-29T06:31:27.465Z,6.10
2023-03-29T06:34:00.310Z,6.80
2023-03-29T06:36:59.200Z,7.50
2023-03-29T06:39:34.554Z,7.50
2023-03-29T06:42:24.270Z,8.40
2023-03-29T06:45:11.074Z,10.00
2023-03-29T06:47:40.947Z,10.50
2023-03-29T06:50:09.709Z,10.10
2023-03-29T06:53:00.494Z,10.50
2023-03-29T06:55:28.899Z,9.70
2023-03-29T06:57:59.680Z,9.50
2023-03-29T07:00:30.000Z,8.70
2023-03-29T07:03:13.521Z,9.30
2023-03-29T07:05:42.361Z,7.80
2023-03-29T07:08:15.334Z,9.70
2023-03-29T07:10:52.866Z,8.70
2023-03-29T07:13:27.741Z,8.80
2023-03-29T07:15:56.785Z,7.80
2023-03-29T07:18:57.735Z,8.30
2023-03-29T07:21:46.159Z,7.80
2023-03-29T07:24:15.849Z,7.10
2023-03-29T07:26:52.130Z,7.30
2023-03-29T07:29:29.024Z,7.10
2023-03-29T07:31:57.968Z,6.10
2023-03-29T07:34:44.455Z,4.60
2023-03-29T07:37:18.800Z,5.20
2023-03-29T07:39:47.415Z,5.10
2023-03-29T07:42:42.462Z,5.30
2023-03-29T07:45:11.933Z,4.70
2023-03-29T07:47:50.110Z,5.40
2023-03-29T07:50:18.359Z,4.40
2023-03-29T07:52:46.612Z,4.20
2023-03-29T07:55:15.781Z,4.30
2023-03-29T07:58:00.451Z,3.90
2023-03-29T08:00:28.836Z,4.10
2023-03-29T08:03:23.216Z,3.90
2023-03-29T08:05:52.165Z,3.90
2023-03-29T08:08:21.008Z,3.60
2023-03-29T08:10:58.639Z,3.50
2023-03-29T08:13:42.719Z,2.80
2023-03-29T08:16:16.881Z,3.10
2023-03-29T08:18:51.503Z,3.40
2023-03-29T08:21:20.475Z,3.20
2023-03-29T08:23:49.960Z,2.90
2023-03-29T08:26:49.119Z,3.60
2023-03-29T08:29:18.867Z,3.60
2023-03-29T08:31:47.688Z,3.60
2023-03-29T08:34:17.011Z,3.60
2023-03-29T08:37:25.994Z,3.10
2023-03-29T08:39:55.367Z,3.80
2023-03-29T08:43:02.126Z,3.40
2023-03-29T08:45:38.600Z,2.70
2023-03-29T08:48:25.090Z,3.40
2023-03-29T08:50:54.968Z,2.80
2023-03-29T08:53:30.760Z,2.90
2023-03-29T08:56:09.139Z,2.80
2023-03-29T08:58:57.839Z,3.30
2023-03-29T09:01:30.950Z,2.80
2023-03-29T09:04:06.861Z,3.00
2023-03-29T09:06:49.382Z,2.50
2023-03-29T09:09:22.683Z,2.30
2023-03-29T09:12:22.031Z,2.90
2023-03-29T09:14:53.757Z,3.10
2023-03-29T09:17:27.980Z,2.50
2023-03-29T09:20:41.097Z,2.50
2023-03-29T09:23:30.692Z,3.40
2023-03-29T09:26:32.636Z,2.30
2023-03-29T09:29:25.524Z,2.40
2023-03-29T09:31:54.111Z,3.10
2023-03-29T09:34:23.806Z,2.80
2023-03-29T09:37:04.729Z,2.40
2023-03-29T09:39:32.950Z,2.70
2023-03-29T09:42:09.437Z,2.20
2023-03-29T09:44:48.533Z,2.20
2023-03-29T09:47:30.268Z,2.40
2023-03-29T09:50:03.128Z,2.50
2023-03-29T09:52:31.609Z,2.00
2023-03-29T09:55:08.123Z,2.20
2023-03-29T09:57:44.651Z,2.40
2023-03-29T10:00:14.939Z,2.20
2023-03-29T10:02:50.262Z,2.00
2023-03-29T10:05:18.584Z,2.20
2023-03-29T10:07:54.463Z,1.80
2023-03-29T10:10:33.368Z,1.60
2023-03-29T10:13:05.044Z,1.80
2023-03-29T10:15:33.145Z,1.50
2023-03-29T10:18:03.746Z,1.80
2023-03-29T10:20:34.359Z,2.10
2023-03-29T10:23:02.432Z,2.50
2023-03-29T10:25:32.992Z,2.50
2023-03-29T10:28:06.567Z,2.80
2023-03-29T10:30:37.305Z,2.50
2023-03-29T10:33:05.456Z,2.10
2023-03-29T10:35:37.521Z,2.20
2023-03-29T10:38:07.967Z,2.40
2023-03-29T10:40:48.412Z,2.20
2023-03-29T10:43:19.597Z,2.30
2023-03-29T10:45:49.161Z,2.30
2023-03-29T10:48:17.927Z,2.00
2023-03-29T10:50:50.628Z,2.00
2023-03-29T10:53:29.747Z,1.80
2023-03-29T10:56:00.878Z,2.20
2023-03-29T10:58:47.940Z,2.30
2023-03-29T11:01:26.299Z,2.50
2023-03-29T11:04:23.178Z,2.60
2023-03-29T11:07:10.711Z,2.40
2023-03-29T11:10:01.160Z,2.30
2023-03-29T11:12:42.038Z,2.50
2023-03-29T11:15:16.328Z,2.00
2023-03-29T11:18:10.118Z,2.10
2023-03-29T11:20:49.870Z,2.30
2023-03-29T11:23:40.403Z,2.00
2023-03-29T11:26:15.340Z,1.90
2023-03-29T11:28:53.241Z,1.90
2023-03-29T11:31:51.682Z,2.30
2023-03-29T11:35:05.609Z,2.10
2023-03-29T11:37:33.747Z,2.20
2023-03-29T11:40:20.687Z,1.80
2023-03-29T11:42:49.637Z,2.10
2023-03-29T11:45:44.695Z,2.20
2023-03-29T11:48:28.835Z,1.90
2023-03-29T11:51:11.739Z,1.90
2023-03-29T11:53:43.087Z,2.40
2023-03-29T11:56:17.175Z,2.80
2023-03-29T11:58:50.638Z,2.30
2023-03-29T12:01:35.154Z,1.80
2023-03-29T12:04:08.008Z,2.40
2023-03-29T12:07:24.355Z,2.50
2023-03-29T12:09:59.233Z,2.70
2023-03-29T12:12:30.262Z,2.20
2023-03-29T12:15:05.606Z,2.60
2023-03-29T12:17:51.811Z,1.90
2023-03-29T12:20:29.577Z,1.90
2023-03-29T12:23:01.199Z,3.20
2023-03-29T12:25:59.368Z,2.60
2023-03-29T12:28:36.882Z,2.40
2023-03-29T12:31:21.703Z,2.20
2023-03-29T12:34:08.010Z,2.00
2023-03-29T12:37:49.396Z,1.90
2023-03-29T12:41:00.426Z,1.80
2023-03-29T12:43:48.164Z,2.00
2023-03-29T12:46:33.834Z,2.30
2023-03-29T12:49:10.461Z,2.20
2023-03-29T12:51:40.911Z,2.10
2023-03-29T12:54:28.854Z,2.50
2023-03-29T12:57:01.514Z,1.90
2023-03-29T12:59:40.759Z,2.20
2023-03-29T13:02:15.213Z,2.10
2023-03-29T13:04:44.006Z,2.20
2023-03-29T13:07:24.178Z,2.20
2023-03-29T13:10:02.418Z,2.30
2023-03-29T13:12:42.456Z,1.60
2023-03-29T13:15:19.498Z,2.60
2023-03-29T13:18:13.027Z,2.40
2023-03-29T13:21:03.317Z,2.00
2023-03-29T13:23:39.127Z,2.10
2023-03-29T13:26:11.517Z,2.30
2023-03-29T13:28:43.415Z,2.40
2023-03-29T13:31:26.788Z,2.50
2023-03-29T13:34:15.135Z,2.80
2023-03-29T13:37:21.152Z,2.00
2023-03-29T13:39:53.894Z,1.90
2023-03-29T13:42:37.147Z,2.00
2023-03-29T13:45:32.685Z,2.30
2023-03-29T13:48:24.250Z,1.90
2023-03-29T13:50:58.002Z,1.80
2023-03-29T13:53:30.176Z,2.40
2023-03-29T13:55:58.624Z,2.40
2023-03-29T13:59:19.320Z,2.70
2023-03-29T14:01:57.499Z,2.80
2023-03-29T14:04:28.993Z,2.60
2023-03-29T14:06:57.789Z,3.00
2023-03-29T14:09:30.273Z,2.90
2023-03-29T14:12:01.571Z,2.50
2023-03-29T14:14:30.711Z,2.60
2023-03-29T14:17:00.261Z,2.50
2023-03-29T14:19:33.316Z,2.90
2023-03-29T14:22:02.152Z,2.90
2023-03-29T14:24:41.420Z,2.80
2023-03-29T14:27:11.631Z,2.60
2023-03-29T14:29:40.164Z,2.90
2023-03-29T14:32:17.009Z,3.00
2023-03-29T14:34:49.662Z,3.10
2023-03-29T14:37:24.833Z,3.00
2023-03-29T14:39:53.657Z,2.20
2023-03-29T14:42:25.234Z,2.70
2023-03-29T14:44:59.149Z,2.90
2023-03-29T14:47:28.793Z,3.00
2023-03-29T14:50:00.962Z,3.00
2023-03-29T14:52:29.868Z,3.20
2023-03-29T14:55:02.406Z,2.50
2023-03-29T14:57:34.641Z,3.30
2023-03-29T15:00:17.388Z,2.90
2023-03-29T15:02:49.989Z,3.30
2023-03-29T15:05:25.415Z,2.70
2023-03-29T15:07:56.372Z,3.00
2023-03-29T15:10:24.486Z,2.80
2023-03-29T15:12:52.897Z,3.30
2023-03-29T15:15:21.516Z,3.00
2023-03-29T15:17:52.329Z,3.10
2023-03-29T15:20:36.699Z,3.00
2023-03-29T15:23:17.163Z,3.10
2023-03-29T15:25:58.862Z,3.20
2023-03-29T15:28:28.516Z,3.00
2023-03-29T15:31:14.407Z,3.50
2023-03-29T15:33:42.633Z,3.90
2023-03-29T15:36:12.731Z,3.70
2023-03-29T15:38:44.587Z,3.60
2023-03-29T15:41:14.570Z,3.50
2023-03-29T15:43:43.036Z,3.40
2023-03-29T15:46:12.482Z,3.50
2023-03-29T15:48:46.417Z,3.30
2023-03-29T15:51:15.236Z,3.10
2023-03-29T15:53:43.334Z,3.50
2023-03-29T15:56:17.682Z,3.10
2023-03-29T15:58:45.920Z,3.20
2023-03-29T16:01:23.853Z,3.00
2023-03-29T16:03:52.404Z,3.50
2023-03-29T16:06:23.051Z,3.70
2023-03-29T16:08:51.433Z,3.90
2023-03-29T16:11:20.309Z,3.60
2023-03-29T16:13:48.857Z,4.00
2023-03-29T16:16:27.890Z,4.00
2023-03-29T16:18:56.778Z,3.20
2023-03-29T16:21:29.534Z,4.00
2023-03-29T16:24:04.630Z,4.20
2023-03-29T16:26:32.767Z,3.50
2023-03-29T16:29:01.108Z,3.90
2023-03-29T16:31:29.316Z,4.00
2023-03-29T16:34:00.990Z,3.50
2023-03-29T16:36:31.063Z,4.10
2023-03-29T16:38:59.724Z,4.70
2023-03-29T16:41:28.273Z,4.30
2023-03-29T16:43:56.838Z,3.90
2023-03-29T16:46:25.237Z,5.30
2023-03-29T16:48:53.836Z,3.80
2023-03-29T16:51:22.411Z,5.10
2023-03-29T16:53:51.795Z,5.50
2023-03-29T16:56:23.560Z,4.90
2023-03-29T16:58:51.839Z,5.30
2023-03-29T17:01:20.761Z,4.90
2023-03-29T17:03:49.071Z,5.00
2023-03-29T17:06:20.978Z,4.80
2023-03-29T17:08:50.825Z,5.10
2023-03-29T17:11:24.024Z,4.80
2023-03-29T17:13:52.139Z,6.30
2023-03-29T17:16:20.831Z,4.80
2023-03-29T17:18:50.444Z,4.40
2023-03-29T17:21:18.702Z,4.90
2023-03-29T17:23:46.811Z,4.80
2023-03-29T17:26:18.672Z,4.60
2023-03-29T17:28:47.075Z,4.70
2023-03-29T17:31:17.136Z,4.60
2023-03-29T17:33:45.516Z,5.60
2023-03-29T17:36:13.672Z,4.40
2023-03-29T17:38:43.228Z,4.50
2023-03-29T17:41:11.470Z,4.90
2023-03-29T17:43:39.501Z,4.60
2023-03-29T17:46:07.664Z,4.40
2023-03-29T17:48:35.909Z,4.70
2023-03-29T17:51:05.104Z,4.50
2023-03-29T17:53:33.546Z,4.30
2023-03-29T17:56:05.065Z,5.30
2023-03-29T17:58:34.790Z,5.60
2023-03-29T18:01:10.082Z,5.40
2023-03-29T18:03:38.285Z,5.60
2023-03-29T18:06:09.594Z,4.90
2023-03-29T18:08:38.427Z,5.40
2023-03-29T18:11:23.082Z,5.10
2023-03-29T18:13:52.156Z,4.90
2023-03-29T18:16:21.064Z,5.10
2023-03-29T18:18:49.777Z,5.50
2023-03-29T18:21:18.444Z,5.80
2023-03-29T18:23:47.716Z,5.20
2023-03-29T18:26:16.423Z,5.30
2023-03-29T18:28:47.115Z,5.70
2023-03-29T18:31:15.978Z,5.90
2023-03-29T18:33:44.445Z,6.10
2023-03-29T18:36:13.672Z,6.20
2023-03-29T18:38:43.489Z,5.80
2023-03-29T18:41:13.118Z,5.90
2023-03-29T18:43:43.352Z,5.70
2023-03-29T18:46:15.884Z,6.20
2023-03-29T18:48:44.223Z,6.70
2023-03-29T18:51:15.841Z,6.10
2023-03-29T18:53:44.473Z,7.30
2023-03-29T18:56:12.720Z,6.00
2023-03-29T18:58:44.313Z,7.40
2023-03-29T19:01:14.170Z,7.60
2023-03-29T19:03:42.445Z,8.10
2023-03-29T19:06:12.007Z,7.70
2023-03-29T19:08:41.521Z,6.70
2023-03-29T19:11:11.502Z,7.60
2023-03-29T19:13:39.596Z,6.50
2023-03-29T19:16:08.300Z,7.40
2023-03-29T19:18:38.494Z,6.80
2023-03-29T19:21:09.155Z,8.10
2023-03-29T19:23:38.048Z,7.20
2023-03-29T19:26:06.708Z,8.50
2023-03-29T19:28:35.391Z,7.10
2023-03-29T19:31:03.988Z,8.10
2023-03-29T19:33:33.886Z,8.10
2023-03-29T19:36:04.668Z,7.80
2023-03-29T19:38:33.390Z,8.40
2023-03-29T19:41:01.788Z,8.10
2023-03-29T19:43:29.898Z,7.70
2023-03-29T19:46:06.121Z,6.50
2023-03-29T19:48:34.999Z,7.30
2023-03-29T19:51:07.076Z,7.60
2023-03-29T19:53:38.490Z,8.20
2023-03-29T19:56:08.067Z,7.90
2023-03-29T19:58:37.726Z,8.70
2023-03-29T20:01:06.159Z,8.70
2023-03-29T20:03:36.255Z,9.40
2023-03-29T20:06:04.888Z,8.30
2023-03-29T20:08:33.276Z,8.90
2023-03-29T20:11:05.264Z,7.70
2023-03-29T20:13:38.787Z,8.70
2023-03-29T20:16:09.773Z,9.10
2023-03-29T20:18:49.875Z,8.50
2023-03-29T20:21:19.934Z,8.70
2023-03-29T20:23:49.051Z,9.10
2023-03-29T20:26:18.788Z,8.80
2023-03-29T20:28:47.299Z,9.50
2023-03-29T20:31:16.415Z,9.40
2023-03-29T20:33:44.798Z,8.80
2023-03-29T20:36:15.330Z,9.50
2023-03-29T20:38:43.693Z,10.20
2023-03-29T20:41:11.835Z,10.20
2023-03-29T20:43:41.319Z,10.10
2023-03-29T20:46:14.680Z,9.60
2023-03-29T20:48:54.921Z,10.10
2023-03-29T20:51:33.227Z,10.80
2023-03-29T20:54:04.836Z,11.80
2023-03-29T20:56:38.946Z,9.00
2023-03-29T20:59:10.934Z,9.50
2023-03-29T21:01:41.092Z,9.30
2023-03-29T21:04:11.056Z,9.90
2023-03-29T21:06:42.297Z,11.30
2023-03-29T21:09:10.421Z,9.80
2023-03-29T21:11:39.316Z,9.40
2023-03-29T21:14:09.571Z,9.90
2023-03-29T21:16:42.178Z,10.30
2023-03-29T21:19:10.581Z,8.30
2023-03-29T21:21:41.595Z,9.40
2023-03-29T21:24:10.910Z,9.70
2023-03-29T21:26:39.710Z,9.20
2023-03-29T21:29:08.030Z,11.60
2023-03-29T21:31:36.818Z,10.90
2023-03-29T21:34:05.656Z,11.30
2023-03-29T21:36:33.668Z,10.10
2023-03-29T21:39:01.806Z,10.70
2023-03-29T21:41:30.115Z,9.50
2023-03-29T21:43:58.353Z,9.90
2023-03-29T21:46:27.816Z,9.30
2023-03-29T21:48:56.124Z,10.00
2023-03-29T21:51:24.142Z,10.10
2023-03-29T21:53:52.590Z,9.90
2023-03-29T21:56:22.893Z,10.20
2023-03-29T21:58:51.119Z,10.30
2023-03-29T22:01:19.463Z,10.80
2023-03-29T22:03:47.791Z,9.30
2023-03-29T22:06:15.877Z,10.90
2023-03-29T22:08:46.872Z,10.30
2023-03-29T22:11:15.732Z,10.70
2023-03-29T22:13:44.040Z,10.50
2023-03-29T22:16:14.273Z,9.60
2023-03-29T22:18:42.620Z,10.20
2023-03-29T22:21:28.588Z,10.10
2023-03-29T22:23:57.383Z,9.40
2023-03-29T22:26:30.640Z,9.50
2023-03-29T22:28:59.389Z,9.10
2023-03-29T22:31:28.302Z,9.60
2023-03-29T22:33:57.012Z,8.00
2023-03-29T22:36:29.178Z,9.20
2023-03-29T22:38:57.892Z,9.40
2023-03-29T22:41:27.775Z,9.20
2023-03-29T22:43:57.028Z,8.50
2023-03-29T22:46:25.485Z,9.00
2023-03-29T22:48:53.624Z,8.60
2023-03-29T22:51:22.535Z,8.80
2023-03-29T22:53:51.674Z,8.40
2023-03-29T22:56:19.751Z,8.90
2023-03-29T22:58:47.805Z,8.80
2023-03-29T23:01:15.932Z,7.80
2023-03-29T23:03:43.964Z,9.10
2023-03-29T23:06:12.248Z,7.20
2023-03-29T23:08:40.574Z,8.90
2023-03-29T23:11:09.353Z,8.10
2023-03-29T23:13:37.788Z,8.20
2023-03-29T23:16:07.756Z,8.60
2023-03-29T23:18:37.966Z,8.40
2023-03-29T23:21:07.390Z,8.40
2023-03-29T23:23:36.185Z,9.40
2023-03-29T23:26:04.553Z,8.30
2023-03-29T23:28:35.025Z,7.50
2023-03-29T23:31:05.190Z,8.10
2023-03-29T23:33:36.054Z,7.90
2023-03-29T23:36:07.692Z,8.10
2023-03-29T23:38:36.699Z,9.60
2023-03-29T23:41:06.511Z,8.50
2023-03-29T23:43:37.300Z,8.60
2023-03-29T23:46:07.157Z,9.90
2023-03-29T23:48:35.175Z,9.10
2023-03-29T23:51:03.487Z,8.30
2023-03-29T23:53:32.284Z,8.80
2023-03-29T23:56:01.687Z,9.00
2023-03-29T23:58:31.799Z,8.80
